createdAt,value
2023-03-25T00:56:15.937Z,500.00
2023-03-25T01:00:16.854Z,500.00
2023-03-25T01:04:16.898Z,408.00
2023-03-25T01:08:16.964Z,483.00
2023-03-25T01:12:17.068Z,500.00
2023-03-25T01:16:17.172Z,500.00
2023-03-25T01:24:16.304Z,500.00
2023-03-25T01:32:16.520Z,503.00
2023-03-25T01:40:16.764Z,503.00
2023-03-25T01:44:17.914Z,505.00
2023-03-25T01:52:17.182Z,502.00
2023-03-25T02:00:17.494Z,505.00
2023-03-25T02:08:17.753Z,506.00
2023-03-25T02:16:18.110Z,506.00
2023-03-25T02:24:18.387Z,502.00
2023-03-25T03:48:19.770Z,503.00
2023-03-25T03:56:19.640Z,504.00
2023-03-25T04:04:19.896Z,501.00
2023-03-25T04:12:20.248Z,501.00
2023-03-25T04:20:20.612Z,500.00
2023-03-25T04:36:20.956Z,505.00
2023-03-25T04:44:20.716Z,501.00
2023-03-25T04:52:20.537Z,502.00
2023-03-25T05:00:20.419Z,500.00
2023-03-25T05:08:20.353Z,501.00
2023-03-25T05:16:20.214Z,501.00
2023-03-25T05:20:21.128Z,500.00
2023-03-25T05:24:21.082Z,504.00
2023-03-25T05:28:21.054Z,503.00
2023-03-25T05:32:20.931Z,502.00
2023-03-25T05:36:21.000Z,500.00
2023-03-25T05:40:21.187Z,500.00
2023-03-25T05:44:21.423Z,502.00
2023-03-25T05:48:21.530Z,503.00
2023-03-25T05:52:21.704Z,508.00
2023-03-25T05:56:21.869Z,502.00
2023-03-25T06:00:23.645Z,503.00
2023-03-25T06:04:21.998Z,502.00
2023-03-25T06:08:21.875Z,502.00
2023-03-25T06:12:21.803Z,504.00
2023-03-25T06:16:21.842Z,506.00
2023-03-25T06:20:21.695Z,502.00
2023-03-25T06:24:21.625Z,503.00
2023-03-25T06:28:21.551Z,508.00
2023-03-25T06:32:21.530Z,506.00
2023-03-25T06:36:21.424Z,504.00
2023-03-25T06:40:21.430Z,502.00
2023-03-25T06:44:24.919Z,503.00
2023-03-25T06:48:21.417Z,496.00
2023-03-25T06:52:21.324Z,507.00
2023-03-25T06:56:21.214Z,510.00
2023-03-25T07:00:21.161Z,480.00
2023-03-25T07:04:21.639Z,415.00
2023-03-25T07:08:21.259Z,497.00
2023-03-25T07:12:21.359Z,503.00
2023-03-25T07:16:21.674Z,518.00
2023-03-25T07:24:21.039Z,579.00
2023-03-25T07:32:21.484Z,601.00
2023-03-25T07:40:21.452Z,645.00
2023-03-25T07:52:21.579Z,666.00
2023-03-25T08:00:21.493Z,701.00
2023-03-25T08:08:21.360Z,759.00
2023-03-25T08:16:21.205Z,742.00
2023-03-25T08:24:21.015Z,696.00
2023-03-25T08:32:20.822Z,970.00
2023-03-25T08:36:21.692Z,789.00
2023-03-25T08:40:21.626Z,733.00
2023-03-25T08:44:21.528Z,694.00
2023-03-25T08:48:21.629Z,703.00
2023-03-25T08:52:21.547Z,675.00
2023-03-25T08:56:21.503Z,641.00
2023-03-25T09:00:21.442Z,467.00
2023-03-25T09:04:21.448Z,528.00
2023-03-25T09:08:21.565Z,557.00
2023-03-25T09:12:21.695Z,548.00
2023-03-25T09:16:21.667Z,583.00
2023-03-25T09:20:21.608Z,623.00
2023-03-25T09:24:21.571Z,720.00
2023-03-25T09:28:21.534Z,500.00
2023-03-25T09:32:21.449Z,500.00
2023-03-25T09:36:21.441Z,500.00
2023-03-25T09:40:21.696Z,546.00
2023-03-25T09:44:21.474Z,615.00
2023-03-25T09:48:21.446Z,766.00
2023-03-25T09:52:21.408Z,993.00
2023-03-25T09:56:21.371Z,1170.00
2023-03-25T10:00:21.349Z,1250.00
2023-03-25T10:04:21.287Z,1359.00
2023-03-25T10:08:21.243Z,1496.00
2023-03-25T10:12:21.256Z,1578.00
2023-03-25T10:16:21.294Z,1667.00
2023-03-25T10:20:21.338Z,1776.00
2023-03-25T10:24:21.466Z,1788.00
2023-03-25T10:28:21.368Z,1879.00
2023-03-25T10:32:21.306Z,1983.00
2023-03-25T10:36:21.146Z,2043.00
2023-03-25T10:40:21.949Z,2131.00
2023-03-25T10:44:20.913Z,2154.00
2023-03-25T10:48:20.840Z,2217.00
2023-03-25T10:52:20.919Z,2236.00
2023-03-25T10:56:21.213Z,2255.00
2023-03-25T11:00:21.329Z,2260.00
2023-03-25T11:04:21.313Z,2285.00
2023-03-25T11:08:24.948Z,2186.00
2023-03-25T11:12:30.209Z,2202.00
2023-03-25T11:16:21.304Z,2198.00
2023-03-25T11:20:21.211Z,2241.00
2023-03-25T11:24:21.093Z,2257.00
2023-03-25T11:28:20.995Z,2279.00
2023-03-25T11:32:20.866Z,2302.00
2023-03-25T11:36:20.759Z,2357.00
2023-03-25T11:40:20.757Z,2390.00
2023-03-25T11:44:20.456Z,2415.00
2023-03-25T11:48:20.493Z,2430.00
2023-03-25T11:52:20.535Z,2429.00
2023-03-25T11:56:20.582Z,2420.00
2023-03-25T12:00:20.697Z,2384.00
2023-03-25T12:04:20.569Z,2354.00
2023-03-25T12:08:20.443Z,2331.00
2023-03-25T12:12:20.327Z,2286.00
2023-03-25T12:16:20.252Z,2235.00
2023-03-25T12:20:20.145Z,2223.00
2023-03-25T12:24:20.064Z,2240.00
2023-03-25T12:28:20.035Z,2220.00
2023-03-25T12:32:19.939Z,2188.00
2023-03-25T12:36:19.850Z,2197.00
2023-03-25T12:40:19.825Z,2186.00
2023-03-25T12:44:19.610Z,2168.00
2023-03-25T12:48:19.493Z,2149.00
2023-03-25T12:52:19.412Z,2122.00
2023-03-25T12:56:19.865Z,2091.00
2023-03-25T13:00:19.336Z,2067.00
2023-03-25T13:04:19.199Z,2071.00
2023-03-25T13:08:19.061Z,2076.00
2023-03-25T13:12:19.056Z,2048.00
2023-03-25T13:16:18.957Z,2032.00
2023-03-25T13:20:18.765Z,2017.00
2023-03-25T13:24:18.727Z,2017.00
2023-03-25T13:28:18.711Z,2007.00
2023-03-25T13:32:18.529Z,2000.00
2023-03-25T13:36:19.255Z,2016.00
2023-03-25T13:40:18.408Z,2003.00
2023-03-25T13:44:18.309Z,1981.00
2023-03-25T13:48:18.264Z,1971.00
2023-03-25T13:52:18.525Z,1944.00
2023-03-25T13:56:18.012Z,1931.00
2023-03-25T14:00:17.990Z,1919.00
2023-03-25T14:04:17.976Z,1908.00
2023-03-25T14:08:17.856Z,1895.00
2023-03-25T14:12:17.787Z,1883.00
2023-03-25T14:16:17.822Z,1871.00
2023-03-25T14:20:17.618Z,1835.00
2023-03-25T14:24:17.536Z,1817.00
2023-03-25T14:28:17.458Z,1797.00
2023-03-25T14:32:17.376Z,1769.00
2023-03-25T14:36:17.324Z,1751.00
2023-03-25T14:40:17.256Z,1733.00
2023-03-25T14:44:17.405Z,1727.00
2023-03-25T14:48:25.171Z,1744.00
2023-03-25T14:52:17.426Z,1725.00
2023-03-25T14:56:17.421Z,1721.00
2023-03-25T15:00:17.279Z,1732.00
2023-03-25T15:04:17.264Z,1714.00
2023-03-25T15:08:17.162Z,1719.00
2023-03-25T15:12:17.037Z,1733.00
2023-03-25T15:16:17.082Z,1728.00
2023-03-25T15:20:16.890Z,1723.00
2023-03-25T15:24:16.722Z,1691.00
2023-03-25T15:28:16.775Z,1703.00
2023-03-25T15:32:16.920Z,1661.00
2023-03-25T15:36:16.817Z,1645.00
2023-03-25T15:40:16.728Z,1643.00
2023-03-25T15:44:16.652Z,1631.00
2023-03-25T15:48:16.642Z,1619.00
2023-03-25T15:52:16.566Z,1635.00
2023-03-25T15:56:16.486Z,1578.00
2023-03-25T16:00:16.527Z,1557.00
2023-03-25T16:04:18.733Z,1541.00
2023-03-25T16:08:16.642Z,1531.00
2023-03-25T16:12:16.529Z,1461.00
2023-03-25T16:16:16.480Z,1336.00
2023-03-25T16:20:16.940Z,1394.00
2023-03-25T16:24:16.253Z,1338.00
2023-03-25T16:28:16.031Z,1270.00
2023-03-25T16:32:15.790Z,1205.00
2023-03-25T16:36:15.774Z,1241.00
2023-03-25T16:40:15.726Z,1296.00
2023-03-25T16:44:15.819Z,1312.00
2023-03-25T16:48:15.688Z,1351.00
2023-03-25T16:52:15.639Z,1409.00
2023-03-25T16:56:15.557Z,1399.00
2023-03-25T17:00:15.403Z,1403.00
2023-03-25T17:04:15.335Z,1368.00
2023-03-25T17:08:15.294Z,1351.00
2023-03-25T17:12:15.185Z,1330.00
2023-03-25T17:16:15.097Z,1289.00
2023-03-25T17:20:15.469Z,1304.00
2023-03-25T17:24:14.824Z,1237.00
2023-03-25T17:28:14.827Z,1219.00
2023-03-25T17:32:14.657Z,1221.00
2023-03-25T17:36:14.586Z,1220.00
2023-03-25T17:40:14.424Z,1189.00
2023-03-25T17:44:14.344Z,1184.00
2023-03-25T17:48:14.593Z,1205.00
2023-03-25T17:52:14.316Z,1217.00
2023-03-25T17:56:14.299Z,1205.00
2023-03-25T18:00:14.318Z,1188.00
2023-03-25T18:04:15.256Z,1167.00
2023-03-25T18:08:14.296Z,1142.00
2023-03-25T18:12:14.274Z,1180.00
2023-03-25T18:16:13.353Z,1159.00
2023-03-25T18:20:14.280Z,1130.00
2023-03-25T18:24:14.334Z,1137.00
2023-03-25T18:28:14.300Z,1117.00
2023-03-25T18:32:14.317Z,1120.00
2023-03-25T18:36:14.212Z,1116.00
2023-03-25T18:40:14.198Z,1114.00
2023-03-25T18:44:14.170Z,1072.00
2023-03-25T18:48:14.138Z,1053.00
2023-03-25T18:52:14.128Z,1057.00
2023-03-25T18:56:14.159Z,1006.00
2023-03-25T19:00:14.126Z,1009.00
2023-03-25T19:04:14.198Z,988.00
2023-03-25T19:08:14.093Z,992.00
2023-03-25T19:12:14.120Z,989.00
2023-03-25T19:16:14.156Z,966.00
2023-03-25T19:20:14.050Z,947.00
2023-03-25T19:24:14.000Z,939.00
2023-03-25T19:28:14.072Z,911.00
2023-03-25T19:32:14.036Z,894.00
2023-03-25T19:36:14.074Z,893.00
2023-03-25T19:40:14.002Z,876.00
2023-03-25T19:44:14.136Z,905.00
2023-03-25T19:48:14.029Z,873.00
2023-03-25T19:52:14.050Z,859.00
2023-03-25T19:56:14.136Z,856.00
2023-03-25T20:00:14.521Z,849.00
2023-03-25T20:04:16.052Z,821.00
2023-03-25T20:08:14.041Z,771.00
2023-03-25T20:12:13.929Z,765.00
2023-03-25T20:16:13.979Z,788.00
2023-03-25T20:20:14.298Z,756.00
2023-03-25T20:24:13.770Z,756.00
2023-03-25T20:28:13.653Z,748.00
2023-03-25T20:32:13.673Z,734.00
2023-03-25T20:36:13.510Z,746.00
2023-03-25T20:40:13.577Z,740.00
2023-03-25T20:44:13.687Z,738.00
2023-03-25T20:48:13.231Z,739.00
2023-03-25T20:52:13.124Z,733.00
2023-03-25T20:56:13.023Z,739.00
2023-03-25T21:00:12.932Z,728.00
2023-03-25T21:04:12.980Z,717.00
2023-03-25T21:08:12.972Z,721.00
2023-03-25T21:12:12.984Z,686.00
2023-03-25T21:16:13.032Z,713.00
2023-03-25T21:20:13.096Z,710.00
2023-03-25T21:24:13.025Z,734.00
2023-03-25T21:28:13.046Z,720.00
2023-03-25T21:32:13.072Z,721.00
2023-03-25T21:36:13.137Z,725.00
2023-03-25T21:40:14.033Z,718.00
2023-03-25T21:44:13.167Z,696.00
2023-03-25T21:48:13.177Z,711.00
2023-03-25T21:52:13.229Z,731.00
2023-03-25T21:56:13.177Z,717.00
2023-03-25T22:00:13.211Z,731.00
2023-03-25T22:04:13.253Z,723.00
2023-03-25T22:08:13.231Z,730.00
2023-03-25T22:12:13.233Z,734.00
2023-03-25T22:16:13.315Z,743.00
2023-03-25T22:20:13.290Z,736.00
2023-03-25T22:24:13.331Z,728.00
2023-03-25T22:28:13.336Z,725.00
2023-03-25T22:32:13.392Z,737.00
2023-03-25T22:36:13.448Z,748.00
2023-03-25T22:40:13.444Z,733.00
2023-03-25T22:44:13.467Z,730.00
2023-03-25T22:48:13.448Z,738.00
2023-03-25T22:52:13.441Z,747.00
2023-03-25T22:56:13.479Z,741.00
2023-03-25T23:00:13.507Z,739.00
2023-03-25T23:04:13.506Z,719.00
2023-03-25T23:08:13.507Z,734.00
2023-03-25T23:12:13.534Z,737.00
2023-03-25T23:16:13.631Z,737.00
2023-03-25T23:20:13.604Z,736.00
2023-03-25T23:24:13.618Z,737.00
2023-03-25T23:28:13.647Z,739.00
2023-03-25T23:32:13.612Z,719.00
2023-03-25T23:36:13.687Z,744.00
2023-03-25T23:40:13.649Z,743.00
2023-03-25T23:44:13.687Z,725.00
2023-03-25T23:48:13.762Z,721.00
2023-03-25T23:52:13.737Z,733.00
2023-03-25T23:56:13.700Z,718.00
